sensor_id;sensor_type;location;lat;lon;timestamp;pressure;altitude;pressure_sealevel;temperature;humidity
5954;BME280;3002;42.642;24.812;2024-03-22T00:00:43;96559.03;;;9.74;60.07
5954;BME280;3002;42.642;24.812;2024-03-22T00:03:09;96571.03;;;9.77;60.25
5954;BME280;3002;42.642;24.812;2024-03-22T00:05:34;96564.78;;;9.52;60.57
5954;BME280;3002;42.642;24.812;2024-03-22T00:08:00;96557.44;;;9.73;60.27
5954;BME280;3002;42.642;24.812;2024-03-22T00:10:25;96543.78;;;9.70;60.09
5954;BME280;3002;42.642;24.812;2024-03-22T00:12:51;96561.69;;;9.74;60.19
5954;BME280;3002;42.642;24.812;2024-03-22T00:15:16;96553.41;;;9.71;60.28
5954;BME280;3002;42.642;24.812;2024-03-22T00:17:45;96545.16;;;9.67;60.62
5954;BME280;3002;42.642;24.812;2024-03-22T00:20:10;96559.56;;;10.05;60.37
5954;BME280;3002;42.642;24.812;2024-03-22T00:22:36;96576.97;;;9.74;61.50
5954;BME280;3002;42.642;24.812;2024-03-22T00:25:01;96550.00;;;10.57;58.81
5954;BME280;3002;42.642;24.812;2024-03-22T00:27:27;96550.28;;;11.04;57.60
5954;BME280;3002;42.642;24.812;2024-03-22T00:29:53;96579.97;;;11.12;57.43
5954;BME280;3002;42.642;24.812;2024-03-22T00:32:18;96536.03;;;10.02;59.27
5954;BME280;3002;42.642;24.812;2024-03-22T00:34:44;96572.78;;;9.97;60.01
5954;BME280;3002;42.642;24.812;2024-03-22T00:37:10;96572.03;;;9.91;60.15
5954;BME280;3002;42.642;24.812;2024-03-22T00:39:35;96553.41;;;9.71;60.75
5954;BME280;3002;42.642;24.812;2024-03-22T00:42:01;96552.28;;;9.77;60.51
5954;BME280;3002;42.642;24.812;2024-03-22T00:44:26;96558.81;;;10.00;59.95
5954;BME280;3002;42.642;24.812;2024-03-22T00:46:52;96550.88;;;10.24;58.91
5954;BME280;3002;42.642;24.812;2024-03-22T00:49:18;96536.03;;;10.02;59.25
5954;BME280;3002;42.642;24.812;2024-03-22T00:51:43;96552.25;;;9.82;59.87
5954;BME280;3002;42.642;24.812;2024-03-22T00:54:10;96548.50;;;9.83;59.73
5954;BME280;3002;42.642;24.812;2024-03-22T00:56:35;96534.16;;;10.03;59.34
5954;BME280;3002;42.642;24.812;2024-03-22T00:59:01;96557.69;;;10.06;59.22
5954;BME280;3002;42.642;24.812;2024-03-22T01:01:26;96559.06;;;9.69;60.33
5954;BME280;3002;42.642;24.812;2024-03-22T01:03:51;96552.84;;;9.79;60.12
5954;BME280;3002;42.642;24.812;2024-03-22T01:06:17;96554.47;;;9.75;60.35
5954;BME280;3002;42.642;24.812;2024-03-22T01:08:48;96563.69;;;10.32;59.17
5954;BME280;3002;42.642;24.812;2024-03-22T01:11:14;96564.25;;;10.24;59.30
5954;BME280;3002;42.642;24.812;2024-03-22T01:13:39;96565.59;;;9.92;60.03
5954;BME280;3002;42.642;24.812;2024-03-22T01:16:05;96574.09;;;9.99;60.25
5954;BME280;3002;42.642;24.812;2024-03-22T01:18:30;96549.94;;;9.70;60.70
5954;BME280;3002;42.642;24.812;2024-03-22T01:20:56;96583.06;;;9.84;60.83
5954;BME280;3002;42.642;24.812;2024-03-22T01:23:21;96572.72;;;9.68;61.58
5954;BME280;3002;42.642;24.812;2024-03-22T01:25:52;96574.16;;;9.55;61.92
5954;BME280;3002;42.642;24.812;2024-03-22T01:28:17;96567.94;;;9.59;61.92
5954;BME280;3002;42.642;24.812;2024-03-22T01:30:43;96579.25;;;9.90;61.23
5954;BME280;3002;42.642;24.812;2024-03-22T01:33:09;96574.28;;;9.74;61.65
5954;BME280;3002;42.642;24.812;2024-03-22T01:35:34;96579.03;;;9.82;61.93
5954;BME280;3002;42.642;24.812;2024-03-22T01:38:00;96586.59;;;9.30;62.96
5954;BME280;3002;42.642;24.812;2024-03-22T01:40:33;96590.91;;;9.26;63.48
5954;BME280;3002;42.642;24.812;2024-03-22T01:42:59;96586.13;;;9.18;63.64
5954;BME280;3002;42.642;24.812;2024-03-22T01:45:25;96572.78;;;9.08;63.47
5954;BME280;3002;42.642;24.812;2024-03-22T01:47:52;96576.69;;;9.31;63.31
5954;BME280;3002;42.642;24.812;2024-03-22T01:50:20;96580.59;;;9.54;62.76
5954;BME280;3002;42.642;24.812;2024-03-22T01:52:46;96555.41;;;9.05;64.10
5954;BME280;3002;42.642;24.812;2024-03-22T01:55:12;96550.28;;;9.19;63.58
5954;BME280;3002;42.642;24.812;2024-03-22T01:57:38;96563.00;;;9.37;63.81
5954;BME280;3002;42.642;24.812;2024-03-22T02:00:03;96539.84;;;9.18;64.11
5954;BME280;3002;42.642;24.812;2024-03-22T02:02:29;96548.94;;;8.21;67.40
5954;BME280;3002;42.642;24.812;2024-03-22T02:04:56;96579.53;;;8.95;66.69
5954;BME280;3002;42.642;24.812;2024-03-22T02:07:21;96577.91;;;8.99;66.37
5954;BME280;3002;42.642;24.812;2024-03-22T02:09:52;96559.50;;;9.42;65.01
5954;BME280;3002;42.642;24.812;2024-03-22T02:12:17;96568.03;;;8.95;nan
5954;BME280;3002;42.642;24.812;2024-03-22T02:14:43;96575.22;;;9.54;65.43
5954;BME280;3002;42.642;24.812;2024-03-22T02:17:09;96549.09;;;9.75;63.79
5954;BME280;3002;42.642;24.812;2024-03-22T02:19:34;96586.28;;;10.15;63.27
5954;BME280;3002;42.642;24.812;2024-03-22T02:22:00;96567.25;;;9.83;63.80
5954;BME280;3002;42.642;24.812;2024-03-22T02:24:25;96572.13;;;9.76;64.68
5954;BME280;3002;42.642;24.812;2024-03-22T02:26:51;96559.09;;;9.64;64.80
5954;BME280;3002;42.642;24.812;2024-03-22T02:29:16;96571.59;;;9.79;64.03
5954;BME280;3002;42.642;24.812;2024-03-22T02:31:41;96619.09;;;9.58;65.49
5954;BME280;3002;42.642;24.812;2024-03-22T02:34:07;96583.22;;;9.59;65.43
5954;BME280;3002;42.642;24.812;2024-03-22T02:36:32;96584.78;;;10.04;64.25
5954;BME280;3002;42.642;24.812;2024-03-22T02:38:58;96570.28;;;10.05;63.85
5954;BME280;3002;42.642;24.812;2024-03-22T02:41:23;96574.91;;;9.65;64.93
5954;BME280;3002;42.642;24.812;2024-03-22T02:43:49;96591.47;;;9.68;65.32
5954;BME280;3002;42.642;24.812;2024-03-22T02:46:14;96617.09;;;9.79;65.07
5954;BME280;3002;42.642;24.812;2024-03-22T02:48:40;96604.41;;;9.95;64.67
5954;BME280;3002;42.642;24.812;2024-03-22T02:51:05;96613.47;;;9.99;64.76
5954;BME280;3002;42.642;24.812;2024-03-22T02:53:31;96623.97;;;9.46;66.67
5954;BME280;3002;42.642;24.812;2024-03-22T02:55:59;96626.00;;;9.69;66.60
5954;BME280;3002;42.642;24.812;2024-03-22T02:58:25;96596.44;;;9.40;67.00
5954;BME280;3002;42.642;24.812;2024-03-22T03:00:51;96614.44;;;9.79;66.30
5954;BME280;3002;42.642;24.812;2024-03-22T03:03:16;96606.00;;;9.56;67.05
5954;BME280;3002;42.642;24.812;2024-03-22T03:05:42;96585.75;;;9.35;66.94
5954;BME280;3002;42.642;24.812;2024-03-22T03:08:07;96583.38;;;9.33;67.59
5954;BME280;3002;42.642;24.812;2024-03-22T03:11:04;96613.13;;;9.71;67.08
5954;BME280;3002;42.642;24.812;2024-03-22T03:13:29;96602.91;;;9.29;68.38
5954;BME280;3002;42.642;24.812;2024-03-22T03:15:55;96602.50;;;9.06;69.33
5954;BME280;3002;42.642;24.812;2024-03-22T03:18:20;96603.97;;;9.33;68.47
5954;BME280;3002;42.642;24.812;2024-03-22T03:20:46;96611.41;;;9.41;68.56
5954;BME280;3002;42.642;24.812;2024-03-22T03:23:11;96609.34;;;9.28;69.41
5954;BME280;3002;42.642;24.812;2024-03-22T03:25:37;96611.25;;;9.22;69.19
5954;BME280;3002;42.642;24.812;2024-03-22T03:28:02;96609.47;;;9.02;69.48
5954;BME280;3002;42.642;24.812;2024-03-22T03:30:28;96596.97;;;8.82;71.11
5954;BME280;3002;42.642;24.812;2024-03-22T03:32:53;96599.56;;;8.98;71.26
5954;BME280;3002;42.642;24.812;2024-03-22T03:35:19;96611.66;;;9.50;69.61
5954;BME280;3002;42.642;24.812;2024-03-22T03:37:44;96605.84;;;9.32;69.95
5954;BME280;3002;42.642;24.812;2024-03-22T03:40:10;96613.88;;;8.37;76.02
5954;BME280;3002;42.642;24.812;2024-03-22T03:42:35;96601.25;;;8.78;74.28
5954;BME280;3002;42.642;24.812;2024-03-22T03:45:01;96608.47;;;8.83;74.30
5954;BME280;3002;42.642;24.812;2024-03-22T03:47:26;96599.44;;;8.64;75.73
5954;BME280;3002;42.642;24.812;2024-03-22T03:49:52;96606.22;;;9.05;73.63
5954;BME280;3002;42.642;24.812;2024-03-22T03:52:17;96622.97;;;8.41;77.41
5954;BME280;3002;42.642;24.812;2024-03-22T03:54:43;96615.69;;;8.77;75.23
5954;BME280;3002;42.642;24.812;2024-03-22T03:57:08;96612.91;;;9.08;73.75
5954;BME280;3002;42.642;24.812;2024-03-22T03:59:34;96618.88;;;8.90;75.25
5954;BME280;3002;42.642;24.812;2024-03-22T04:01:59;96624.44;;;8.98;74.70
5954;BME280;3002;42.642;24.812;2024-03-22T04:04:25;96644.19;;;9.18;73.92
5954;BME280;3002;42.642;24.812;2024-03-22T04:06:50;96637.28;;;9.01;74.07
5954;BME280;3002;42.642;24.812;2024-03-22T04:09:16;96616.22;;;8.74;74.83
5954;BME280;3002;42.642;24.812;2024-03-22T04:11:41;96633.03;;;8.85;75.89
5954;BME280;3002;42.642;24.812;2024-03-22T04:14:06;96633.00;;;9.00;74.52
5954;BME280;3002;42.642;24.812;2024-03-22T04:16:32;96612.44;;;8.96;73.34
5954;BME280;3002;42.642;24.812;2024-03-22T04:18:58;96666.69;;;9.06;75.53
5954;BME280;3002;42.642;24.812;2024-03-22T04:21:23;96638.31;;;9.10;74.53
5954;BME280;3002;42.642;24.812;2024-03-22T04:23:49;96651.13;;;9.24;75.39
5954;BME280;3002;42.642;24.812;2024-03-22T04:26:14;96661.09;;;8.98;76.82
5954;BME280;3002;42.642;24.812;2024-03-22T04:28:40;96670.72;;;8.99;77.04
5954;BME280;3002;42.642;24.812;2024-03-22T04:31:07;96648.50;;;8.98;76.88
5954;BME280;3002;42.642;24.812;2024-03-22T04:33:37;96676.91;;;9.64;73.28
5954;BME280;3002;42.642;24.812;2024-03-22T04:36:03;96694.66;;;9.39;75.07
5954;BME280;3002;42.642;24.812;2024-03-22T04:38:29;96682.38;;;9.38;75.11
5954;BME280;3002;42.642;24.812;2024-03-22T04:44:17;96674.97;;;9.75;71.43
5954;BME280;3002;42.642;24.812;2024-03-22T04:46:42;96685.41;;;9.71;73.03
5954;BME280;3002;42.642;24.812;2024-03-22T04:49:08;96662.06;;;9.82;71.83
5954;BME280;3002;42.642;24.812;2024-03-22T04:51:33;96683.84;;;10.14;70.37
5954;BME280;3002;42.642;24.812;2024-03-22T04:53:59;96669.03;;;10.22;69.29
5954;BME280;3002;42.642;24.812;2024-03-22T04:56:24;96688.56;;;10.33;69.89
5954;BME280;3002;42.642;24.812;2024-03-22T04:58:50;96670.47;;;10.49;68.82
5954;BME280;3002;42.642;24.812;2024-03-22T05:01:15;96656.34;;;10.67;68.32
5954;BME280;3002;42.642;24.812;2024-03-22T05:03:41;96661.16;;;11.90;63.00
5954;BME280;3002;42.642;24.812;2024-03-22T05:06:06;96682.03;;;13.56;56.72
5954;BME280;3002;42.642;24.812;2024-03-22T05:08:33;96691.63;;;14.70;52.11
5954;BME280;3002;42.642;24.812;2024-03-22T05:11:07;96679.94;;;14.84;50.79
5954;BME280;3002;42.642;24.812;2024-03-22T05:13:33;96690.75;;;14.84;50.44
5954;BME280;3002;42.642;24.812;2024-03-22T05:15:58;96660.06;;;14.57;50.01
5954;BME280;3002;42.642;24.812;2024-03-22T05:18:24;96690.06;;;14.56;50.08
5954;BME280;3002;42.642;24.812;2024-03-22T05:20:49;96689.06;;;15.27;48.96
5954;BME280;3002;42.642;24.812;2024-03-22T05:23:15;96679.91;;;17.36;44.92
5954;BME280;3002;42.642;24.812;2024-03-22T05:25:52;96696.44;;;17.52;43.55
5954;BME280;3002;42.642;24.812;2024-03-22T05:28:18;96690.22;;;16.96;44.14
5954;BME280;3002;42.642;24.812;2024-03-22T05:30:43;96685.84;;;17.21;44.00
5954;BME280;3002;42.642;24.812;2024-03-22T05:33:09;96685.47;;;16.67;44.56
5954;BME280;3002;42.642;24.812;2024-03-22T05:35:34;96693.56;;;15.81;46.48
5954;BME280;3002;42.642;24.812;2024-03-22T05:38:00;96689.63;;;16.04;46.53
5954;BME280;3002;42.642;24.812;2024-03-22T05:40:25;96688.41;;;17.64;42.79
5954;BME280;3002;42.642;24.812;2024-03-22T05:42:51;96683.44;;;16.29;45.66
5954;BME280;3002;42.642;24.812;2024-03-22T05:45:16;96690.44;;;16.56;45.25
5954;BME280;3002;42.642;24.812;2024-03-22T05:47:41;96681.84;;;16.72;44.90
5954;BME280;3002;42.642;24.812;2024-03-22T05:50:07;96701.06;;;16.96;45.26
5954;BME280;3002;42.642;24.812;2024-03-22T05:52:33;96707.63;;;16.09;46.24
5954;BME280;3002;42.642;24.812;2024-03-22T05:54:59;96697.28;;;15.22;48.96
5954;BME280;3002;42.642;24.812;2024-03-22T05:57:25;96704.19;;;15.77;47.79
5954;BME280;3002;42.642;24.812;2024-03-22T05:59:50;96720.94;;;17.73;44.18
5954;BME280;3002;42.642;24.812;2024-03-22T06:02:16;96731.13;;;18.06;43.67
5954;BME280;3002;42.642;24.812;2024-03-22T06:04:42;96727.22;;;18.99;41.83
5954;BME280;3002;42.642;24.812;2024-03-22T06:07:07;96705.25;;;18.50;42.27
5954;BME280;3002;42.642;24.812;2024-03-22T06:09:33;96705.28;;;19.04;40.13
5954;BME280;3002;42.642;24.812;2024-03-22T06:12:17;96707.22;;;19.98;38.88
5954;BME280;3002;42.642;24.812;2024-03-22T06:14:43;96713.06;;;20.24;37.57
5954;BME280;3002;42.642;24.812;2024-03-22T06:17:09;96701.78;;;19.16;39.11
5954;BME280;3002;42.642;24.812;2024-03-22T06:19:36;96702.88;;;20.21;37.30
5954;BME280;3002;42.642;24.812;2024-03-22T06:22:01;96677.28;;;19.98;38.58
5954;BME280;3002;42.642;24.812;2024-03-22T06:24:28;96717.34;;;17.43;41.92
5954;BME280;3002;42.642;24.812;2024-03-22T06:26:53;96685.13;;;17.88;40.62
5954;BME280;3002;42.642;24.812;2024-03-22T06:29:19;96676.34;;;18.12;41.12
5954;BME280;3002;42.642;24.812;2024-03-22T06:31:44;96695.78;;;17.08;42.04
5954;BME280;3002;42.642;24.812;2024-03-22T06:34:10;96693.28;;;15.91;44.22
5954;BME280;3002;42.642;24.812;2024-03-22T06:36:35;96694.09;;;16.69;43.53
5954;BME280;3002;42.642;24.812;2024-03-22T06:39:01;96709.91;;;17.31;41.46
5954;BME280;3002;42.642;24.812;2024-03-22T06:41:28;96686.84;;;18.35;38.88
5954;BME280;3002;42.642;24.812;2024-03-22T06:43:54;96697.63;;;19.31;36.91
5954;BME280;3002;42.642;24.812;2024-03-22T06:46:19;96684.81;;;18.32;37.97
5954;BME280;3002;42.642;24.812;2024-03-22T06:48:45;96727.97;;;17.57;39.55
5954;BME280;3002;42.642;24.812;2024-03-22T06:51:11;96718.56;;;19.63;37.33
5954;BME280;3002;42.642;24.812;2024-03-22T06:53:37;96703.56;;;19.57;37.43
5954;BME280;3002;42.642;24.812;2024-03-22T06:56:03;96696.25;;;20.75;35.54
5954;BME280;3002;42.642;24.812;2024-03-22T06:58:29;96721.97;;;20.90;35.73
5954;BME280;3002;42.642;24.812;2024-03-22T07:00:54;96717.91;;;20.83;35.13
5954;BME280;3002;42.642;24.812;2024-03-22T07:03:20;96708.88;;;22.02;33.86
5954;BME280;3002;42.642;24.812;2024-03-22T07:05:47;96724.22;;;21.91;33.89
5954;BME280;3002;42.642;24.812;2024-03-22T07:08:13;96690.88;;;19.98;35.88
5954;BME280;3002;42.642;24.812;2024-03-22T07:10:39;96694.63;;;21.93;34.17
5954;BME280;3002;42.642;24.812;2024-03-22T07:13:05;96702.25;;;23.35;31.60
5954;BME280;3002;42.642;24.812;2024-03-22T07:15:30;96702.66;;;21.86;33.79
5954;BME280;3002;42.642;24.812;2024-03-22T07:17:57;96687.09;;;19.41;35.77
5954;BME280;3002;42.642;24.812;2024-03-22T07:20:23;96683.09;;;18.06;37.87
5954;BME280;3002;42.642;24.812;2024-03-22T07:22:49;96695.66;;;19.89;35.75
5954;BME280;3002;42.642;24.812;2024-03-22T07:25:15;96690.97;;;20.66;34.57
5954;BME280;3002;42.642;24.812;2024-03-22T07:27:40;96678.09;;;20.26;35.04
5954;BME280;3002;42.642;24.812;2024-03-22T07:30:06;96673.47;;;20.67;34.12
5954;BME280;3002;42.642;24.812;2024-03-22T07:32:32;96675.03;;;20.68;33.18
5954;BME280;3002;42.642;24.812;2024-03-22T07:34:58;96707.63;;;20.77;34.28
5954;BME280;3002;42.642;24.812;2024-03-22T07:37:23;96691.03;;;22.24;32.62
5954;BME280;3002;42.642;24.812;2024-03-22T07:39:58;96683.69;;;23.25;31.23
5954;BME280;3002;42.642;24.812;2024-03-22T07:42:24;96700.16;;;22.12;32.44
5954;BME280;3002;42.642;24.812;2024-03-22T07:44:49;96681.66;;;20.02;35.00
5954;BME280;3002;42.642;24.812;2024-03-22T07:47:14;96713.38;;;21.95;33.29
5954;BME280;3002;42.642;24.812;2024-03-22T07:49:40;96710.75;;;22.88;32.15
5954;BME280;3002;42.642;24.812;2024-03-22T07:52:05;96706.16;;;21.86;32.71
5954;BME280;3002;42.642;24.812;2024-03-22T07:54:31;96695.72;;;19.31;35.47
5954;BME280;3002;42.642;24.812;2024-03-22T07:56:57;96714.63;;;20.38;35.07
5954;BME280;3002;42.642;24.812;2024-03-22T07:59:22;96688.13;;;20.22;34.57
5954;BME280;3002;42.642;24.812;2024-03-22T08:01:48;96700.47;;;18.89;36.38
5954;BME280;3002;42.642;24.812;2024-03-22T08:04:13;96699.31;;;19.23;35.28
5954;BME280;3002;42.642;24.812;2024-03-22T08:06:40;96713.19;;;18.34;36.64
5954;BME280;3002;42.642;24.812;2024-03-22T08:09:05;96708.44;;;19.06;35.65
5954;BME280;3002;42.642;24.812;2024-03-22T08:11:31;96709.50;;;18.39;36.31
5954;BME280;3002;42.642;24.812;2024-03-22T08:13:56;96718.91;;;19.98;35.11
5954;BME280;3002;42.642;24.812;2024-03-22T08:16:27;96714.84;;;20.85;33.17
5954;BME280;3002;42.642;24.812;2024-03-22T08:18:53;96697.88;;;20.23;34.31
5954;BME280;3002;42.642;24.812;2024-03-22T08:21:18;96668.25;;;20.90;32.75
5954;BME280;3002;42.642;24.812;2024-03-22T08:23:44;96709.13;;;20.22;34.37
5954;BME280;3002;42.642;24.812;2024-03-22T08:26:10;96708.66;;;21.60;32.46
5954;BME280;3002;42.642;24.812;2024-03-22T08:28:35;96684.25;;;22.73;30.80
5954;BME280;3002;42.642;24.812;2024-03-22T08:31:04;96693.94;;;24.53;29.20
5954;BME280;3002;42.642;24.812;2024-03-22T08:33:30;96707.88;;;24.71;28.44
5954;BME280;3002;42.642;24.812;2024-03-22T08:35:55;96699.41;;;23.74;28.96
5954;BME280;3002;42.642;24.812;2024-03-22T08:38:21;96702.69;;;23.60;29.53
5954;BME280;3002;42.642;24.812;2024-03-22T08:40:46;96714.25;;;23.96;29.67
5954;BME280;3002;42.642;24.812;2024-03-22T08:43:12;96718.25;;;22.36;29.81
5954;BME280;3002;42.642;24.812;2024-03-22T08:45:38;96709.22;;;22.52;30.03
5954;BME280;3002;42.642;24.812;2024-03-22T08:48:03;96691.31;;;24.08;28.45
5954;BME280;3002;42.642;24.812;2024-03-22T08:50:30;96694.78;;;24.31;28.72
5954;BME280;3002;42.642;24.812;2024-03-22T08:52:55;96708.84;;;26.08;27.36
5954;BME280;3002;42.642;24.812;2024-03-22T08:55:21;96697.56;;;21.09;32.08
5954;BME280;3002;42.642;24.812;2024-03-22T08:57:46;96701.31;;;22.85;30.20
5954;BME280;3002;42.642;24.812;2024-03-22T09:00:13;96703.47;;;21.11;31.42
5954;BME280;3002;42.642;24.812;2024-03-22T09:02:39;96698.84;;;20.83;32.83
5954;BME280;3002;42.642;24.812;2024-03-22T09:05:05;96704.75;;;22.82;30.66
5954;BME280;3002;42.642;24.812;2024-03-22T09:07:31;96716.38;;;23.83;29.34
5954;BME280;3002;42.642;24.812;2024-03-22T09:09:57;96706.28;;;25.04;27.61
5954;BME280;3002;42.642;24.812;2024-03-22T09:12:22;96715.97;;;21.72;31.34
5954;BME280;3002;42.642;24.812;2024-03-22T09:14:48;96702.41;;;21.44;31.87
5954;BME280;3002;42.642;24.812;2024-03-22T09:17:13;96713.75;;;21.77;31.78
5954;BME280;3002;42.642;24.812;2024-03-22T09:19:39;96696.53;;;24.43;29.22
5954;BME280;3002;42.642;24.812;2024-03-22T09:22:04;96699.97;;;24.66;28.94
5954;BME280;3002;42.642;24.812;2024-03-22T09:24:30;96686.69;;;23.85;28.92
5954;BME280;3002;42.642;24.812;2024-03-22T09:26:55;96673.72;;;20.62;31.81
5954;BME280;3002;42.642;24.812;2024-03-22T09:29:21;96711.72;;;20.71;31.93
5954;BME280;3002;42.642;24.812;2024-03-22T09:31:46;96704.94;;;22.35;30.01
5954;BME280;3002;42.642;24.812;2024-03-22T09:34:12;96714.41;;;22.57;29.12
5954;BME280;3002;42.642;24.812;2024-03-22T09:36:38;96694.44;;;22.91;28.88
5954;BME280;3002;42.642;24.812;2024-03-22T09:39:03;96711.81;;;23.03;28.70
5954;BME280;3002;42.642;24.812;2024-03-22T09:44:38;96702.03;;;22.43;30.92
5954;BME280;3002;42.642;24.812;2024-03-22T09:47:06;96689.09;;;21.58;29.49
5954;BME280;3002;42.642;24.812;2024-03-22T09:49:31;96692.63;;;23.91;28.02
5954;BME280;3002;42.642;24.812;2024-03-22T09:51:57;96677.56;;;22.31;29.21
5954;BME280;3002;42.642;24.812;2024-03-22T09:54:24;96701.28;;;23.47;28.46
5954;BME280;3002;42.642;24.812;2024-03-22T09:56:55;96699.13;;;24.06;28.13
5954;BME280;3002;42.642;24.812;2024-03-22T09:59:21;96684.88;;;23.70;30.20
5954;BME280;3002;42.642;24.812;2024-03-22T10:01:51;96659.75;;;21.86;31.84
5954;BME280;3002;42.642;24.812;2024-03-22T10:04:17;96662.00;;;22.35;31.24
5954;BME280;3002;42.642;24.812;2024-03-22T10:06:46;96674.59;;;21.10;31.83
5954;BME280;3002;42.642;24.812;2024-03-22T10:09:12;96662.53;;;20.39;32.02
5954;BME280;3002;42.642;24.812;2024-03-22T10:11:38;96682.47;;;20.55;32.04
5954;BME280;3002;42.642;24.812;2024-03-22T10:14:03;96669.28;;;20.17;33.38
5954;BME280;3002;42.642;24.812;2024-03-22T10:16:36;96684.19;;;20.88;33.54
5954;BME280;3002;42.642;24.812;2024-03-22T10:19:02;96677.50;;;21.61;31.33
5954;BME280;3002;42.642;24.812;2024-03-22T10:21:27;96673.63;;;18.87;34.01
5954;BME280;3002;42.642;24.812;2024-03-22T10:23:54;96686.28;;;21.38;31.37
5954;BME280;3002;42.642;24.812;2024-03-22T10:26:21;96685.47;;;23.37;27.82
5954;BME280;3002;42.642;24.812;2024-03-22T10:28:47;96674.41;;;24.59;26.92
5954;BME280;3002;42.642;24.812;2024-03-22T10:31:13;96683.97;;;23.39;28.70
5954;BME280;3002;42.642;24.812;2024-03-22T10:33:40;96674.69;;;22.43;29.78
5954;BME280;3002;42.642;24.812;2024-03-22T10:36:07;96686.59;;;22.35;29.35
5954;BME280;3002;42.642;24.812;2024-03-22T10:38:38;96674.13;;;23.61;27.03
5954;BME280;3002;42.642;24.812;2024-03-22T10:41:04;96668.78;;;23.91;27.36
5954;BME280;3002;42.642;24.812;2024-03-22T10:43:30;96641.38;;;24.81;27.58
5954;BME280;3002;42.642;24.812;2024-03-22T10:46:01;96661.50;;;23.76;27.17
5954;BME280;3002;42.642;24.812;2024-03-22T10:48:30;96661.41;;;21.91;28.63
5954;BME280;3002;42.642;24.812;2024-03-22T10:50:59;96639.94;;;20.95;29.58
5954;BME280;3002;42.642;24.812;2024-03-22T10:53:26;96637.84;;;21.20;29.65
5954;BME280;3002;42.642;24.812;2024-03-22T10:56:12;96645.97;;;23.15;27.08
5954;BME280;3002;42.642;24.812;2024-03-22T10:58:41;96650.00;;;24.20;26.92
5954;BME280;3002;42.642;24.812;2024-03-22T11:01:22;96644.88;;;23.88;26.67
5954;BME280;3002;42.642;24.812;2024-03-22T11:03:47;96633.13;;;25.63;25.31
5954;BME280;3002;42.642;24.812;2024-03-22T11:06:13;96633.75;;;26.63;24.64
5954;BME280;3002;42.642;24.812;2024-03-22T11:08:38;96634.56;;;25.46;24.86
5954;BME280;3002;42.642;24.812;2024-03-22T11:11:10;96630.00;;;25.65;24.44
5954;BME280;3002;42.642;24.812;2024-03-22T11:13:36;96616.94;;;26.93;24.03
5954;BME280;3002;42.642;24.812;2024-03-22T11:16:02;96621.56;;;25.87;24.24
5954;BME280;3002;42.642;24.812;2024-03-22T11:18:27;96597.06;;;23.59;25.52
5954;BME280;3002;42.642;24.812;2024-03-22T11:20:53;96604.44;;;22.86;26.08
5954;BME280;3002;42.642;24.812;2024-03-22T11:23:19;96599.94;;;25.31;23.71
5954;BME280;3002;42.642;24.812;2024-03-22T11:25:45;96588.22;;;26.83;22.87
5954;BME280;3002;42.642;24.812;2024-03-22T11:28:11;96596.22;;;25.60;23.43
5954;BME280;3002;42.642;24.812;2024-03-22T11:30:37;96585.22;;;26.15;22.58
5954;BME280;3002;42.642;24.812;2024-03-22T11:33:04;96584.69;;;26.97;21.94
5954;BME280;3002;42.642;24.812;2024-03-22T11:35:31;96573.84;;;26.24;21.52
5954;BME280;3002;42.642;24.812;2024-03-22T11:37:57;96578.84;;;27.31;21.20
5954;BME280;3002;42.642;24.812;2024-03-22T11:40:25;96568.59;;;27.20;21.01
5954;BME280;3002;42.642;24.812;2024-03-22T11:42:53;96578.22;;;26.36;21.67
5954;BME280;3002;42.642;24.812;2024-03-22T11:45:20;96562.59;;;26.54;21.33
5954;BME280;3002;42.642;24.812;2024-03-22T11:47:47;96569.16;;;25.59;22.58
5954;BME280;3002;42.642;24.812;2024-03-22T11:50:13;96556.41;;;25.88;22.29
5954;BME280;3002;42.642;24.812;2024-03-22T11:52:43;96557.97;;;27.72;21.34
5954;BME280;3002;42.642;24.812;2024-03-22T11:55:14;96569.72;;;27.98;20.47
5954;BME280;3002;42.642;24.812;2024-03-22T11:57:40;96561.72;;;28.39;21.12
5954;BME280;3002;42.642;24.812;2024-03-22T12:00:06;96562.22;;;26.74;21.23
5954;BME280;3002;42.642;24.812;2024-03-22T12:02:36;96562.22;;;26.59;21.63
5954;BME280;3002;42.642;24.812;2024-03-22T12:05:02;96551.28;;;27.48;21.50
5954;BME280;3002;42.642;24.812;2024-03-22T12:07:28;96553.66;;;27.07;21.12
5954;BME280;3002;42.642;24.812;2024-03-22T12:09:53;96548.78;;;28.11;20.96
5954;BME280;3002;42.642;24.812;2024-03-22T12:12:21;96560.28;;;27.88;21.38
5954;BME280;3002;42.642;24.812;2024-03-22T12:14:47;96534.34;;;27.68;20.66
5954;BME280;3002;42.642;24.812;2024-03-22T12:17:12;96524.41;;;27.99;20.09
5954;BME280;3002;42.642;24.812;2024-03-22T12:19:38;96519.56;;;28.39;20.62
5954;BME280;3002;42.642;24.812;2024-03-22T12:22:03;96547.34;;;29.73;19.95
5954;BME280;3002;42.642;24.812;2024-03-22T12:24:31;96524.25;;;29.49;19.76
5954;BME280;3002;42.642;24.812;2024-03-22T12:27:03;96526.00;;;28.00;19.66
5954;BME280;3002;42.642;24.812;2024-03-22T12:29:29;96516.00;;;28.38;19.17
5954;BME280;3002;42.642;24.812;2024-03-22T12:31:57;96526.06;;;28.66;20.00
5954;BME280;3002;42.642;24.812;2024-03-22T12:34:22;96491.63;;;28.22;19.00
5954;BME280;3002;42.642;24.812;2024-03-22T12:36:48;96489.56;;;27.25;19.35
5954;BME280;3002;42.642;24.812;2024-03-22T12:39:14;96489.78;;;27.94;19.47
5954;BME280;3002;42.642;24.812;2024-03-22T12:41:55;96508.25;;;28.78;19.15
5954;BME280;3002;42.642;24.812;2024-03-22T12:44:21;96510.28;;;27.83;19.00
5954;BME280;3002;42.642;24.812;2024-03-22T12:46:47;96499.75;;;27.28;19.25
5954;BME280;3002;42.642;24.812;2024-03-22T12:49:12;96476.53;;;26.54;19.57
5954;BME280;3002;42.642;24.812;2024-03-22T12:51:38;96510.75;;;26.74;19.57
5954;BME280;3002;42.642;24.812;2024-03-22T12:54:04;96491.88;;;26.80;19.19
5954;BME280;3002;42.642;24.812;2024-03-22T12:56:30;96489.53;;;27.42;19.29
5954;BME280;3002;42.642;24.812;2024-03-22T12:58:57;96493.00;;;27.75;19.18
5954;BME280;3002;42.642;24.812;2024-03-22T13:01:22;96493.47;;;26.88;18.77
5954;BME280;3002;42.642;24.812;2024-03-22T13:03:47;96493.06;;;25.63;19.15
5954;BME280;3002;42.642;24.812;2024-03-22T13:06:13;96501.28;;;26.50;18.88
5954;BME280;3002;42.642;24.812;2024-03-22T13:08:38;96467.53;;;27.14;18.42
5954;BME280;3002;42.642;24.812;2024-03-22T13:11:04;96477.63;;;27.81;18.01
5954;BME280;3002;42.642;24.812;2024-03-22T13:13:30;96470.22;;;27.50;18.56
5954;BME280;3002;42.642;24.812;2024-03-22T13:15:58;96488.72;;;27.49;18.01